sensor_id;sensor_type;location;lat;lon;timestamp;P1;durP1;ratioP1;P2;durP2;ratioP2
59416;SDS011;45222;52.458;20.914;2023-07-29T00:00:26;8.10;;;2.80;;
59416;SDS011;45222;52.458;20.914;2023-07-29T00:04:32;7.10;;;3.10;;
59416;SDS011;45222;52.458;20.914;2023-07-29T00:08:17;4.80;;;2.90;;
59416;SDS011;45222;52.458;20.914;2023-07-29T00:12:02;5.90;;;2.90;;
59416;SDS011;45222;52.458;20.914;2023-07-29T00:15:48;5.40;;;3.30;;
59416;SDS011;45222;52.458;20.914;2023-07-29T00:19:33;6.60;;;3.60;;
59416;SDS011;45222;52.458;20.914;2023-07-29T00:23:18;8.00;;;3.70;;
59416;SDS011;45222;52.458;20.914;2023-07-29T00:27:05;7.40;;;3.30;;
59416;SDS011;45222;52.458;20.914;2023-07-29T00:30:50;10.50;;;3.30;;
59416;SDS011;45222;52.458;20.914;2023-07-29T00:34:35;10.70;;;3.10;;
59416;SDS011;45222;52.458;20.914;2023-07-29T00:38:20;7.50;;;2.90;;
59416;SDS011;45222;52.458;20.914;2023-07-29T00:42:06;9.60;;;3.10;;
59416;SDS011;45222;52.458;20.914;2023-07-29T00:45:52;5.50;;;3.20;;
59416;SDS011;45222;52.458;20.914;2023-07-29T00:49:38;8.00;;;3.40;;
59416;SDS011;45222;52.458;20.914;2023-07-29T00:53:23;10.70;;;4.00;;
59416;SDS011;45222;52.458;20.914;2023-07-29T00:57:08;12.90;;;3.30;;
59416;SDS011;45222;52.458;20.914;2023-07-29T01:00:57;13.40;;;3.30;;
59416;SDS011;45222;52.458;20.914;2023-07-29T01:04:45;13.90;;;3.60;;
59416;SDS011;45222;52.458;20.914;2023-07-29T01:08:37;10.60;;;4.00;;
59416;SDS011;45222;52.458;20.914;2023-07-29T01:12:36;19.90;;;3.50;;
59416;SDS011;45222;52.458;20.914;2023-07-29T01:16:28;22.70;;;3.20;;
59416;SDS011;45222;52.458;20.914;2023-07-29T01:20:17;5.50;;;2.40;;
59416;SDS011;45222;52.458;20.914;2023-07-29T01:24:04;8.70;;;2.70;;
59416;SDS011;45222;52.458;20.914;2023-07-29T01:27:49;11.80;;;2.80;;
59416;SDS011;45222;52.458;20.914;2023-07-29T01:31:37;6.60;;;2.90;;
59416;SDS011;45222;52.458;20.914;2023-07-29T01:35:32;10.70;;;2.50;;
59416;SDS011;45222;52.458;20.914;2023-07-29T01:39:20;17.70;;;2.70;;
59416;SDS011;45222;52.458;20.914;2023-07-29T01:43:07;11.30;;;2.50;;
59416;SDS011;45222;52.458;20.914;2023-07-29T01:46:52;7.40;;;2.40;;
59416;SDS011;45222;52.458;20.914;2023-07-29T01:50:38;7.20;;;2.70;;
59416;SDS011;45222;52.458;20.914;2023-07-29T01:54:23;8.90;;;2.80;;
59416;SDS011;45222;52.458;20.914;2023-07-29T01:58:09;8.00;;;2.50;;
59416;SDS011;45222;52.458;20.914;2023-07-29T02:01:54;12.00;;;2.60;;
59416;SDS011;45222;52.458;20.914;2023-07-29T02:05:39;10.40;;;2.40;;
59416;SDS011;45222;52.458;20.914;2023-07-29T02:09:25;11.80;;;3.00;;
59416;SDS011;45222;52.458;20.914;2023-07-29T02:13:11;7.70;;;2.90;;
59416;SDS011;45222;52.458;20.914;2023-07-29T02:16:56;12.50;;;2.90;;
59416;SDS011;45222;52.458;20.914;2023-07-29T02:20:41;12.50;;;2.90;;
59416;SDS011;45222;52.458;20.914;2023-07-29T02:24:32;9.70;;;2.90;;
59416;SDS011;45222;52.458;20.914;2023-07-29T02:28:17;11.60;;;2.40;;
59416;SDS011;45222;52.458;20.914;2023-07-29T02:32:02;10.30;;;2.80;;
59416;SDS011;45222;52.458;20.914;2023-07-29T02:35:48;12.20;;;2.80;;
59416;SDS011;45222;52.458;20.914;2023-07-29T02:39:33;8.30;;;2.40;;
59416;SDS011;45222;52.458;20.914;2023-07-29T02:43:18;5.30;;;2.50;;
59416;SDS011;45222;52.458;20.914;2023-07-29T02:47:03;6.30;;;2.60;;
59416;SDS011;45222;52.458;20.914;2023-07-29T02:50:48;8.40;;;2.60;;
59416;SDS011;45222;52.458;20.914;2023-07-29T02:54:33;14.50;;;2.60;;
59416;SDS011;45222;52.458;20.914;2023-07-29T02:58:18;6.40;;;2.80;;
59416;SDS011;45222;52.458;20.914;2023-07-29T03:02:04;5.50;;;2.40;;
59416;SDS011;45222;52.458;20.914;2023-07-29T03:05:49;7.70;;;2.60;;
59416;SDS011;45222;52.458;20.914;2023-07-29T03:09:40;6.90;;;2.60;;
59416;SDS011;45222;52.458;20.914;2023-07-29T03:13:25;4.80;;;2.40;;
59416;SDS011;45222;52.458;20.914;2023-07-29T03:17:10;5.50;;;2.50;;
59416;SDS011;45222;52.458;20.914;2023-07-29T03:20:56;8.70;;;2.70;;
59416;SDS011;45222;52.458;20.914;2023-07-29T03:24:41;7.30;;;2.50;;
59416;SDS011;45222;52.458;20.914;2023-07-29T03:28:27;10.70;;;2.60;;
59416;SDS011;45222;52.458;20.914;2023-07-29T03:32:14;11.70;;;3.20;;
59416;SDS011;45222;52.458;20.914;2023-07-29T03:35:59;22.50;;;3.30;;
59416;SDS011;45222;52.458;20.914;2023-07-29T03:39:44;19.30;;;2.70;;
59416;SDS011;45222;52.458;20.914;2023-07-29T03:43:29;14.40;;;2.50;;
59416;SDS011;45222;52.458;20.914;2023-07-29T03:47:14;8.40;;;2.20;;
59416;SDS011;45222;52.458;20.914;2023-07-29T03:50:59;13.10;;;2.60;;
59416;SDS011;45222;52.458;20.914;2023-07-29T03:54:44;7.10;;;2.70;;
59416;SDS011;45222;52.458;20.914;2023-07-29T03:58:29;9.50;;;2.80;;
59416;SDS011;45222;52.458;20.914;2023-07-29T04:02:14;7.70;;;3.30;;
59416;SDS011;45222;52.458;20.914;2023-07-29T04:06:00;24.50;;;4.10;;
59416;SDS011;45222;52.458;20.914;2023-07-29T04:09:45;56.10;;;4.60;;
59416;SDS011;45222;52.458;20.914;2023-07-29T04:13:30;27.40;;;4.10;;
59416;SDS011;45222;52.458;20.914;2023-07-29T04:17:15;18.30;;;3.60;;
59416;SDS011;45222;52.458;20.914;2023-07-29T04:21:00;22.60;;;4.00;;
59416;SDS011;45222;52.458;20.914;2023-07-29T04:24:46;14.70;;;4.40;;
59416;SDS011;45222;52.458;20.914;2023-07-29T04:28:31;23.50;;;5.20;;
59416;SDS011;45222;52.458;20.914;2023-07-29T04:32:16;16.50;;;5.80;;
59416;SDS011;45222;52.458;20.914;2023-07-29T04:36:01;9.80;;;5.40;;
59416;SDS011;45222;52.458;20.914;2023-07-29T04:39:47;9.90;;;5.20;;
59416;SDS011;45222;52.458;20.914;2023-07-29T04:43:32;7.70;;;5.60;;
59416;SDS011;45222;52.458;20.914;2023-07-29T04:47:18;8.90;;;5.80;;
59416;SDS011;45222;52.458;20.914;2023-07-29T04:51:03;11.40;;;6.60;;
59416;SDS011;45222;52.458;20.914;2023-07-29T04:54:48;26.00;;;8.00;;
59416;SDS011;45222;52.458;20.914;2023-07-29T04:58:33;18.20;;;7.80;;
59416;SDS011;45222;52.458;20.914;2023-07-29T05:02:18;28.40;;;7.80;;
59416;SDS011;45222;52.458;20.914;2023-07-29T05:06:04;15.60;;;7.40;;
59416;SDS011;45222;52.458;20.914;2023-07-29T05:09:49;20.60;;;7.50;;
59416;SDS011;45222;52.458;20.914;2023-07-29T05:13:34;22.80;;;8.10;;
59416;SDS011;45222;52.458;20.914;2023-07-29T05:17:20;14.60;;;7.60;;
59416;SDS011;45222;52.458;20.914;2023-07-29T05:21:05;17.90;;;8.20;;
59416;SDS011;45222;52.458;20.914;2023-07-29T05:24:51;22.00;;;7.70;;
59416;SDS011;45222;52.458;20.914;2023-07-29T05:28:37;15.20;;;8.30;;
59416;SDS011;45222;52.458;20.914;2023-07-29T05:32:22;11.60;;;8.00;;
59416;SDS011;45222;52.458;20.914;2023-07-29T05:36:07;13.90;;;7.40;;
59416;SDS011;45222;52.458;20.914;2023-07-29T05:39:52;12.60;;;7.90;;
59416;SDS011;45222;52.458;20.914;2023-07-29T05:43:37;10.00;;;8.30;;
59416;SDS011;45222;52.458;20.914;2023-07-29T05:47:23;9.90;;;8.50;;
59416;SDS011;45222;52.458;20.914;2023-07-29T05:51:08;11.00;;;9.20;;
59416;SDS011;45222;52.458;20.914;2023-07-29T05:54:53;11.20;;;9.00;;
59416;SDS011;45222;52.458;20.914;2023-07-29T05:58:38;11.90;;;8.40;;
59416;SDS011;45222;52.458;20.914;2023-07-29T06:02:24;11.50;;;8.90;;
59416;SDS011;45222;52.458;20.914;2023-07-29T06:06:09;12.10;;;8.90;;
59416;SDS011;45222;52.458;20.914;2023-07-29T06:09:54;10.80;;;9.30;;
59416;SDS011;45222;52.458;20.914;2023-07-29T06:13:39;10.20;;;9.00;;
59416;SDS011;45222;52.458;20.914;2023-07-29T06:17:24;10.80;;;9.50;;
59416;SDS011;45222;52.458;20.914;2023-07-29T06:21:09;12.00;;;8.90;;
59416;SDS011;45222;52.458;20.914;2023-07-29T06:25:00;9.70;;;8.30;;
59416;SDS011;45222;52.458;20.914;2023-07-29T06:28:45;10.50;;;7.70;;
59416;SDS011;45222;52.458;20.914;2023-07-29T06:32:30;12.30;;;8.60;;
59416;SDS011;45222;52.458;20.914;2023-07-29T06:36:16;10.70;;;8.50;;
59416;SDS011;45222;52.458;20.914;2023-07-29T06:40:01;10.60;;;8.50;;
59416;SDS011;45222;52.458;20.914;2023-07-29T06:43:46;9.60;;;8.40;;
59416;SDS011;45222;52.458;20.914;2023-07-29T06:47:31;11.10;;;8.30;;
59416;SDS011;45222;52.458;20.914;2023-07-29T06:51:16;10.80;;;9.00;;
59416;SDS011;45222;52.458;20.914;2023-07-29T06:55:02;10.60;;;9.00;;
59416;SDS011;45222;52.458;20.914;2023-07-29T06:58:47;10.20;;;8.90;;
59416;SDS011;45222;52.458;20.914;2023-07-29T07:02:32;11.10;;;8.90;;
59416;SDS011;45222;52.458;20.914;2023-07-29T07:06:17;9.80;;;8.30;;
59416;SDS011;45222;52.458;20.914;2023-07-29T07:10:03;10.80;;;8.30;;
59416;SDS011;45222;52.458;20.914;2023-07-29T07:13:49;11.10;;;8.30;;
59416;SDS011;45222;52.458;20.914;2023-07-29T07:17:34;10.20;;;8.70;;
59416;SDS011;45222;52.458;20.914;2023-07-29T07:21:19;10.30;;;7.90;;
59416;SDS011;45222;52.458;20.914;2023-07-29T07:25:05;9.40;;;7.30;;
59416;SDS011;45222;52.458;20.914;2023-07-29T07:28:51;11.20;;;8.30;;
59416;SDS011;45222;52.458;20.914;2023-07-29T07:32:36;10.00;;;8.00;;
59416;SDS011;45222;52.458;20.914;2023-07-29T07:36:21;10.70;;;8.80;;
59416;SDS011;45222;52.458;20.914;2023-07-29T07:40:07;9.80;;;7.80;;
59416;SDS011;45222;52.458;20.914;2023-07-29T07:43:53;9.40;;;7.20;;
59416;SDS011;45222;52.458;20.914;2023-07-29T07:47:39;10.40;;;7.40;;
59416;SDS011;45222;52.458;20.914;2023-07-29T07:51:24;11.20;;;6.50;;
59416;SDS011;45222;52.458;20.914;2023-07-29T07:55:09;9.20;;;6.90;;
59416;SDS011;45222;52.458;20.914;2023-07-29T07:58:54;9.30;;;6.60;;
59416;SDS011;45222;52.458;20.914;2023-07-29T08:02:39;8.90;;;6.10;;
59416;SDS011;45222;52.458;20.914;2023-07-29T08:06:24;7.80;;;5.70;;
59416;SDS011;45222;52.458;20.914;2023-07-29T08:10:10;7.60;;;5.40;;
59416;SDS011;45222;52.458;20.914;2023-07-29T08:13:55;7.60;;;4.90;;
59416;SDS011;45222;52.458;20.914;2023-07-29T08:17:40;7.60;;;5.10;;
59416;SDS011;45222;52.458;20.914;2023-07-29T08:21:26;7.40;;;4.70;;
59416;SDS011;45222;52.458;20.914;2023-07-29T08:25:11;8.10;;;5.20;;
59416;SDS011;45222;52.458;20.914;2023-07-29T08:28:56;6.60;;;4.50;;
59416;SDS011;45222;52.458;20.914;2023-07-29T08:32:41;7.90;;;4.90;;
59416;SDS011;45222;52.458;20.914;2023-07-29T08:36:28;6.70;;;4.80;;
59416;SDS011;45222;52.458;20.914;2023-07-29T08:40:13;8.00;;;4.40;;
59416;SDS011;45222;52.458;20.914;2023-07-29T08:43:59;6.70;;;4.20;;
59416;SDS011;45222;52.458;20.914;2023-07-29T08:47:50;5.80;;;3.90;;
59416;SDS011;45222;52.458;20.914;2023-07-29T08:51:42;5.10;;;3.50;;
59416;SDS011;45222;52.458;20.914;2023-07-29T08:55:28;6.00;;;4.00;;
59416;SDS011;45222;52.458;20.914;2023-07-29T08:59:16;8.70;;;3.90;;
59416;SDS011;45222;52.458;20.914;2023-07-29T09:03:08;6.40;;;4.30;;
59416;SDS011;45222;52.458;20.914;2023-07-29T09:06:54;7.90;;;4.10;;
59416;SDS011;45222;52.458;20.914;2023-07-29T09:10:42;4.30;;;3.10;;
59416;SDS011;45222;52.458;20.914;2023-07-29T09:14:27;5.60;;;3.80;;
59416;SDS011;45222;52.458;20.914;2023-07-29T09:18:14;5.00;;;3.20;;
59416;SDS011;45222;52.458;20.914;2023-07-29T09:22:00;5.10;;;3.40;;
59416;SDS011;45222;52.458;20.914;2023-07-29T09:25:46;6.30;;;3.80;;
59416;SDS011;45222;52.458;20.914;2023-07-29T09:29:35;4.90;;;3.10;;
59416;SDS011;45222;52.458;20.914;2023-07-29T09:33:20;5.00;;;3.00;;
59416;SDS011;45222;52.458;20.914;2023-07-29T09:37:09;5.00;;;2.90;;
59416;SDS011;45222;52.458;20.914;2023-07-29T09:40:58;5.00;;;2.90;;
59416;SDS011;45222;52.458;20.914;2023-07-29T09:44:44;5.20;;;2.80;;
59416;SDS011;45222;52.458;20.914;2023-07-29T09:48:32;5.60;;;3.00;;
59416;SDS011;45222;52.458;20.914;2023-07-29T09:52:17;4.00;;;2.70;;
59416;SDS011;45222;52.458;20.914;2023-07-29T09:56:04;4.50;;;3.00;;
59416;SDS011;45222;52.458;20.914;2023-07-29T09:59:55;4.80;;;2.60;;
59416;SDS011;45222;52.458;20.914;2023-07-29T10:03:41;3.10;;;2.40;;
59416;SDS011;45222;52.458;20.914;2023-07-29T10:07:27;3.40;;;2.50;;
59416;SDS011;45222;52.458;20.914;2023-07-29T10:11:13;4.00;;;2.40;;
59416;SDS011;45222;52.458;20.914;2023-07-29T10:14:59;3.00;;;2.20;;
59416;SDS011;45222;52.458;20.914;2023-07-29T10:22:33;4.60;;;2.60;;
59416;SDS011;45222;52.458;20.914;2023-07-29T10:26:21;4.70;;;2.70;;
59416;SDS011;45222;52.458;20.914;2023-07-29T10:30:08;3.80;;;2.50;;
59416;SDS011;45222;52.458;20.914;2023-07-29T10:33:55;4.70;;;3.00;;
59416;SDS011;45222;52.458;20.914;2023-07-29T10:37:41;4.90;;;2.40;;
59416;SDS011;45222;52.458;20.914;2023-07-29T10:45:45;3.50;;;2.10;;
59416;SDS011;45222;52.458;20.914;2023-07-29T10:49:31;2.90;;;1.80;;
59416;SDS011;45222;52.458;20.914;2023-07-29T10:53:20;3.50;;;1.80;;
59416;SDS011;45222;52.458;20.914;2023-07-29T10:57:14;4.80;;;2.00;;
59416;SDS011;45222;52.458;20.914;2023-07-29T11:00:59;4.60;;;2.10;;
59416;SDS011;45222;52.458;20.914;2023-07-29T11:04:48;5.40;;;2.00;;
59416;SDS011;45222;52.458;20.914;2023-07-29T11:08:34;2.60;;;1.80;;
59416;SDS011;45222;52.458;20.914;2023-07-29T11:12:35;2.50;;;1.90;;
59416;SDS011;45222;52.458;20.914;2023-07-29T11:16:29;3.90;;;2.20;;
59416;SDS011;45222;52.458;20.914;2023-07-29T11:20:15;2.50;;;1.80;;
59416;SDS011;45222;52.458;20.914;2023-07-29T11:24:01;4.40;;;2.20;;
59416;SDS011;45222;52.458;20.914;2023-07-29T11:27:46;3.90;;;2.40;;
59416;SDS011;45222;52.458;20.914;2023-07-29T11:31:39;3.00;;;2.00;;
59416;SDS011;45222;52.458;20.914;2023-07-29T11:35:24;2.70;;;2.10;;
59416;SDS011;45222;52.458;20.914;2023-07-29T11:39:10;4.60;;;2.20;;
59416;SDS011;45222;52.458;20.914;2023-07-29T11:42:55;2.80;;;2.10;;
59416;SDS011;45222;52.458;20.914;2023-07-29T11:46:40;4.20;;;2.00;;
59416;SDS011;45222;52.458;20.914;2023-07-29T11:50:26;2.60;;;1.90;;
59416;SDS011;45222;52.458;20.914;2023-07-29T11:54:12;2.40;;;1.80;;
59416;SDS011;45222;52.458;20.914;2023-07-29T11:57:57;2.90;;;1.80;;
59416;SDS011;45222;52.458;20.914;2023-07-29T12:01:42;2.60;;;1.80;;
59416;SDS011;45222;52.458;20.914;2023-07-29T12:05:27;2.90;;;1.80;;
59416;SDS011;45222;52.458;20.914;2023-07-29T12:09:13;2.90;;;1.90;;
59416;SDS011;45222;52.458;20.914;2023-07-29T12:12:58;2.60;;;1.60;;
59416;SDS011;45222;52.458;20.914;2023-07-29T12:16:47;2.50;;;1.70;;
59416;SDS011;45222;52.458;20.914;2023-07-29T12:20:32;6.40;;;2.20;;
59416;SDS011;45222;52.458;20.914;2023-07-29T12:24:18;2.10;;;1.70;;
59416;SDS011;45222;52.458;20.914;2023-07-29T12:28:06;3.00;;;1.80;;
59416;SDS011;45222;52.458;20.914;2023-07-29T12:31:57;3.60;;;1.90;;
59416;SDS011;45222;52.458;20.914;2023-07-29T12:35:45;3.30;;;1.80;;
59416;SDS011;45222;52.458;20.914;2023-07-29T12:39:30;7.60;;;2.10;;
59416;SDS011;45222;52.458;20.914;2023-07-29T12:43:17;3.20;;;1.70;;
59416;SDS011;45222;52.458;20.914;2023-07-29T12:47:03;2.30;;;1.70;;
59416;SDS011;45222;52.458;20.914;2023-07-29T12:50:49;3.40;;;1.90;;
59416;SDS011;45222;52.458;20.914;2023-07-29T12:54:35;3.90;;;2.40;;
59416;SDS011;45222;52.458;20.914;2023-07-29T12:58:20;3.70;;;1.90;;
59416;SDS011;45222;52.458;20.914;2023-07-29T13:02:05;2.30;;;1.80;;
59416;SDS011;45222;52.458;20.914;2023-07-29T13:05:51;3.30;;;1.70;;
59416;SDS011;45222;52.458;20.914;2023-07-29T13:09:36;4.20;;;1.80;;
59416;SDS011;45222;52.458;20.914;2023-07-29T13:13:21;2.30;;;1.80;;
59416;SDS011;45222;52.458;20.914;2023-07-29T13:17:06;4.00;;;2.10;;
59416;SDS011;45222;52.458;20.914;2023-07-29T13:20:51;2.40;;;1.70;;
59416;SDS011;45222;52.458;20.914;2023-07-29T13:24:36;3.40;;;1.70;;
59416;SDS011;45222;52.458;20.914;2023-07-29T13:28:21;2.50;;;1.70;;
59416;SDS011;45222;52.458;20.914;2023-07-29T13:32:07;2.30;;;1.80;;
59416;SDS011;45222;52.458;20.914;2023-07-29T13:35:53;2.70;;;1.80;;
59416;SDS011;45222;52.458;20.914;2023-07-29T13:39:38;3.60;;;1.90;;
59416;SDS011;45222;52.458;20.914;2023-07-29T13:43:23;3.00;;;1.80;;
59416;SDS011;45222;52.458;20.914;2023-07-29T13:47:08;3.50;;;1.70;;
59416;SDS011;45222;52.458;20.914;2023-07-29T13:50:53;4.90;;;1.90;;
59416;SDS011;45222;52.458;20.914;2023-07-29T13:54:38;2.90;;;1.70;;
59416;SDS011;45222;52.458;20.914;2023-07-29T13:58:23;2.10;;;1.70;;
59416;SDS011;45222;52.458;20.914;2023-07-29T14:02:10;3.80;;;1.90;;
59416;SDS011;45222;52.458;20.914;2023-07-29T14:05:55;2.60;;;1.80;;
59416;SDS011;45222;52.458;20.914;2023-07-29T14:09:40;1.90;;;1.60;;
59416;SDS011;45222;52.458;20.914;2023-07-29T14:13:26;3.30;;;1.70;;
59416;SDS011;45222;52.458;20.914;2023-07-29T14:17:11;2.30;;;1.70;;
59416;SDS011;45222;52.458;20.914;2023-07-29T14:20:56;3.30;;;1.80;;
59416;SDS011;45222;52.458;20.914;2023-07-29T14:24:41;3.10;;;1.80;;
59416;SDS011;45222;52.458;20.914;2023-07-29T14:28:26;2.20;;;1.60;;
59416;SDS011;45222;52.458;20.914;2023-07-29T14:32:12;2.10;;;1.60;;
59416;SDS011;45222;52.458;20.914;2023-07-29T14:35:57;3.90;;;1.80;;
59416;SDS011;45222;52.458;20.914;2023-07-29T14:39:42;2.10;;;1.80;;
59416;SDS011;45222;52.458;20.914;2023-07-29T14:43:27;2.40;;;1.70;;
59416;SDS011;45222;52.458;20.914;2023-07-29T14:47:12;3.10;;;1.80;;
59416;SDS011;45222;52.458;20.914;2023-07-29T14:50:57;4.40;;;1.80;;
59416;SDS011;45222;52.458;20.914;2023-07-29T14:54:43;2.20;;;1.60;;
59416;SDS011;45222;52.458;20.914;2023-07-29T14:58:28;2.40;;;1.70;;
59416;SDS011;45222;52.458;20.914;2023-07-29T15:02:13;4.70;;;1.90;;
59416;SDS011;45222;52.458;20.914;2023-07-29T15:05:59;1.60;;;1.40;;
59416;SDS011;45222;52.458;20.914;2023-07-29T15:09:44;3.00;;;1.60;;
59416;SDS011;45222;52.458;20.914;2023-07-29T15:13:32;3.00;;;1.90;;
59416;SDS011;45222;52.458;20.914;2023-07-29T15:17:17;3.20;;;1.80;;
59416;SDS011;45222;52.458;20.914;2023-07-29T15:21:02;2.20;;;1.70;;
59416;SDS011;45222;52.458;20.914;2023-07-29T15:24:48;2.20;;;1.40;;
59416;SDS011;45222;52.458;20.914;2023-07-29T15:28:33;3.20;;;1.60;;
59416;SDS011;45222;52.458;20.914;2023-07-29T15:32:18;3.60;;;1.80;;
59416;SDS011;45222;52.458;20.914;2023-07-29T15:36:04;2.90;;;1.80;;
59416;SDS011;45222;52.458;20.914;2023-07-29T15:39:49;2.40;;;1.60;;
59416;SDS011;45222;52.458;20.914;2023-07-29T15:43:34;3.40;;;2.30;;
59416;SDS011;45222;52.458;20.914;2023-07-29T15:47:19;3.50;;;1.80;;
59416;SDS011;45222;52.458;20.914;2023-07-29T15:51:04;2.70;;;1.70;;
59416;SDS011;45222;52.458;20.914;2023-07-29T15:54:51;3.80;;;1.70;;
59416;SDS011;45222;52.458;20.914;2023-07-29T15:58:37;2.90;;;1.90;;
59416;SDS011;45222;52.458;20.914;2023-07-29T16:02:23;4.20;;;1.80;;
59416;SDS011;45222;52.458;20.914;2023-07-29T16:06:08;3.70;;;1.90;;
59416;SDS011;45222;52.458;20.914;2023-07-29T16:09:53;5.90;;;2.20;;
59416;SDS011;45222;52.458;20.914;2023-07-29T16:13:38;4.90;;;1.90;;
59416;SDS011;45222;52.458;20.914;2023-07-29T16:17:23;2.80;;;1.80;;
59416;SDS011;45222;52.458;20.914;2023-07-29T16:21:08;2.80;;;1.90;;
59416;SDS011;45222;52.458;20.914;2023-07-29T16:24:53;4.80;;;2.20;;
59416;SDS011;45222;52.458;20.914;2023-07-29T16:28:38;5.30;;;2.20;;
59416;SDS011;45222;52.458;20.914;2023-07-29T16:32:24;3.40;;;2.20;;
59416;SDS011;45222;52.458;20.914;2023-07-29T16:36:09;2.70;;;1.90;;
59416;SDS011;45222;52.458;20.914;2023-07-29T16:39:54;3.60;;;2.10;;
59416;SDS011;45222;52.458;20.914;2023-07-29T16:43:40;4.00;;;2.20;;
59416;SDS011;45222;52.458;20.914;2023-07-29T16:47:25;3.80;;;2.30;;
59416;SDS011;45222;52.458;20.914;2023-07-29T16:51:10;4.80;;;2.90;;
59416;SDS011;45222;52.458;20.914;2023-07-29T16:54:55;3.70;;;2.30;;
59416;SDS011;45222;52.458;20.914;2023-07-29T16:58:40;4.50;;;2.50;;
59416;SDS011;45222;52.458;20.914;2023-07-29T17:02:26;3.70;;;2.40;;
59416;SDS011;45222;52.458;20.914;2023-07-29T17:06:11;3.60;;;2.40;;
59416;SDS011;45222;52.458;20.914;2023-07-29T17:09:56;5.80;;;2.60;;
59416;SDS011;45222;52.458;20.914;2023-07-29T17:13:41;4.40;;;2.70;;
59416;SDS011;45222;52.458;20.914;2023-07-29T17:17:26;8.30;;;3.20;;
59416;SDS011;45222;52.458;20.914;2023-07-29T17:21:11;3.30;;;2.40;;
59416;SDS011;45222;52.458;20.914;2023-07-29T17:24:56;4.20;;;2.60;;
59416;SDS011;45222;52.458;20.914;2023-07-29T17:28:41;5.80;;;2.80;;
59416;SDS011;45222;52.458;20.914;2023-07-29T17:32:26;6.90;;;2.70;;
59416;SDS011;45222;52.458;20.914;2023-07-29T17:36:11;4.60;;;2.40;;
59416;SDS011;45222;52.458;20.914;2023-07-29T17:39:56;6.80;;;3.00;;
59416;SDS011;45222;52.458;20.914;2023-07-29T17:43:41;16.90;;;3.80;;
59416;SDS011;45222;52.458;20.914;2023-07-29T17:47:30;18.90;;;3.30;;
59416;SDS011;45222;52.458;20.914;2023-07-29T17:51:15;5.10;;;2.80;;
59416;SDS011;45222;52.458;20.914;2023-07-29T17:55:00;5.10;;;2.90;;
59416;SDS011;45222;52.458;20.914;2023-07-29T17:58:45;5.10;;;3.10;;
59416;SDS011;45222;52.458;20.914;2023-07-29T18:02:30;4.40;;;3.00;;
59416;SDS011;45222;52.458;20.914;2023-07-29T18:06:16;6.20;;;3.30;;
59416;SDS011;45222;52.458;20.914;2023-07-29T18:10:02;4.60;;;3.20;;
59416;SDS011;45222;52.458;20.914;2023-07-29T18:13:48;5.70;;;3.00;;
59416;SDS011;45222;52.458;20.914;2023-07-29T18:17:33;5.50;;;3.30;;
59416;SDS011;45222;52.458;20.914;2023-07-29T18:21:18;5.90;;;3.30;;
59416;SDS011;45222;52.458;20.914;2023-07-29T18:25:04;6.70;;;3.30;;
59416;SDS011;45222;52.458;20.914;2023-07-29T18:28:50;5.50;;;3.40;;
59416;SDS011;45222;52.458;20.914;2023-07-29T18:32:35;4.90;;;3.10;;
59416;SDS011;45222;52.458;20.914;2023-07-29T18:36:21;7.80;;;3.70;;
59416;SDS011;45222;52.458;20.914;2023-07-29T18:40:08;5.30;;;3.30;;
59416;SDS011;45222;52.458;20.914;2023-07-29T18:43:54;6.10;;;3.60;;
59416;SDS011;45222;52.458;20.914;2023-07-29T18:47:41;6.20;;;3.40;;
59416;SDS011;45222;52.458;20.914;2023-07-29T18:51:26;6.90;;;3.90;;
59416;SDS011;45222;52.458;20.914;2023-07-29T18:55:11;7.60;;;3.60;;
59416;SDS011;45222;52.458;20.914;2023-07-29T18:58:56;7.00;;;3.70;;
59416;SDS011;45222;52.458;20.914;2023-07-29T19:02:42;7.10;;;3.60;;
59416;SDS011;45222;52.458;20.914;2023-07-29T19:06:28;6.30;;;3.80;;
59416;SDS011;45222;52.458;20.914;2023-07-29T19:10:13;7.90;;;3.90;;
59416;SDS011;45222;52.458;20.914;2023-07-29T19:13:58;7.30;;;3.80;;
59416;SDS011;45222;52.458;20.914;2023-07-29T19:17:45;6.70;;;3.60;;
59416;SDS011;45222;52.458;20.914;2023-07-29T19:21:30;9.10;;;4.60;;
59416;SDS011;45222;52.458;20.914;2023-07-29T19:25:16;9.30;;;4.30;;
59416;SDS011;45222;52.458;20.914;2023-07-29T19:29:01;6.80;;;4.20;;
59416;SDS011;45222;52.458;20.914;2023-07-29T19:32:46;8.80;;;4.60;;
59416;SDS011;45222;52.458;20.914;2023-07-29T19:36:31;8.80;;;4.40;;
59416;SDS011;45222;52.458;20.914;2023-07-29T19:40:18;8.60;;;4.30;;
59416;SDS011;45222;52.458;20.914;2023-07-29T19:44:03;8.30;;;4.10;;
59416;SDS011;45222;52.458;20.914;2023-07-29T19:47:48;8.00;;;4.60;;
59416;SDS011;45222;52.458;20.914;2023-07-29T19:51:33;7.10;;;4.40;;
59416;SDS011;45222;52.458;20.914;2023-07-29T19:55:18;7.50;;;4.40;;
59416;SDS011;45222;52.458;20.914;2023-07-29T19:59:04;9.50;;;4.60;;
59416;SDS011;45222;52.458;20.914;2023-07-29T20:02:49;7.40;;;4.20;;
59416;SDS011;45222;52.458;20.914;2023-07-29T20:06:34;7.00;;;4.20;;
59416;SDS011;45222;52.458;20.914;2023-07-29T20:10:20;6.50;;;4.20;;
59416;SDS011;45222;52.458;20.914;2023-07-29T20:14:05;8.20;;;4.80;;
59416;SDS011;45222;52.458;20.914;2023-07-29T20:17:51;8.20;;;4.80;;
59416;SDS011;45222;52.458;20.914;2023-07-29T20:21:36;6.50;;;4.60;;
59416;SDS011;45222;52.458;20.914;2023-07-29T20:25:21;8.00;;;4.50;;
59416;SDS011;45222;52.458;20.914;2023-07-29T20:29:06;8.40;;;4.80;;
59416;SDS011;45222;52.458;20.914;2023-07-29T20:32:52;7.10;;;4.80;;
59416;SDS011;45222;52.458;20.914;2023-07-29T20:36:37;7.80;;;4.90;;
59416;SDS011;45222;52.458;20.914;2023-07-29T20:40:22;7.70;;;4.50;;
59416;SDS011;45222;52.458;20.914;2023-07-29T20:44:07;8.90;;;5.00;;
59416;SDS011;45222;52.458;20.914;2023-07-29T20:47:54;9.00;;;4.60;;
59416;SDS011;45222;52.458;20.914;2023-07-29T20:51:39;10.10;;;5.20;;
59416;SDS011;45222;52.458;20.914;2023-07-29T20:55:24;8.90;;;5.20;;
59416;SDS011;45222;52.458;20.914;2023-07-29T20:59:09;8.20;;;5.20;;
59416;SDS011;45222;52.458;20.914;2023-07-29T21:02:55;11.10;;;6.40;;
59416;SDS011;45222;52.458;20.914;2023-07-29T21:06:40;10.60;;;5.40;;
59416;SDS011;45222;52.458;20.914;2023-07-29T21:10:25;16.20;;;4.60;;
59416;SDS011;45222;52.458;20.914;2023-07-29T21:14:10;15.10;;;4.90;;
59416;SDS011;45222;52.458;20.914;2023-07-29T21:17:55;9.50;;;4.20;;
59416;SDS011;45222;52.458;20.914;2023-07-29T21:21:40;9.00;;;3.80;;
59416;SDS011;45222;52.458;20.914;2023-07-29T21:25:26;9.00;;;3.20;;
59416;SDS011;45222;52.458;20.914;2023-07-29T21:29:11;4.60;;;2.50;;
59416;SDS011;45222;52.458;20.914;2023-07-29T21:32:56;7.90;;;2.50;;
59416;SDS011;45222;52.458;20.914;2023-07-29T21:36:42;6.70;;;2.40;;
59416;SDS011;45222;52.458;20.914;2023-07-29T21:40:27;6.70;;;2.40;;
59416;SDS011;45222;52.458;20.914;2023-07-29T21:44:12;7.60;;;3.20;;
59416;SDS011;45222;52.458;20.914;2023-07-29T21:47:57;7.60;;;2.50;;
59416;SDS011;45222;52.458;20.914;2023-07-29T21:51:43;7.50;;;2.40;;
59416;SDS011;45222;52.458;20.914;2023-07-29T21:55:28;6.60;;;2.40;;
59416;SDS011;45222;52.458;20.914;2023-07-29T21:59:13;6.70;;;2.50;;
59416;SDS011;45222;52.458;20.914;2023-07-29T22:02:59;6.10;;;2.70;;
59416;SDS011;45222;52.458;20.914;2023-07-29T22:06:44;6.50;;;2.50;;
59416;SDS011;45222;52.458;20.914;2023-07-29T22:10:29;6.10;;;2.30;;
59416;SDS011;45222;52.458;20.914;2023-07-29T22:14:14;9.00;;;2.60;;
59416;SDS011;45222;52.458;20.914;2023-07-29T22:18:01;6.80;;;2.60;;
59416;SDS011;45222;52.458;20.914;2023-07-29T22:21:47;7.10;;;2.30;;